KBWI/BWI METAR and TAF weather

Enter ICAO airport designator
Station Type Date Time Source
KBWI METAR 2024/05/28 22:54 UTC NOAA

KBWI 282254Z 23008KT 10SM FEW060 FEW080 SCT100 SCT200 25/13 A2982 RMK AO2 SLP098 CB DSNT S MOV E TCU DSNT W T02500128 $


Station Type Date Time Source
KBWI Decoded METAR 2024/05/28 22:54 UTC NOAA

BALTIMORE-WASHINGTON INTERNATIONAL , MD, United States (KBWI) 39-10N 076-41W 59M
May 28, 2024 - 06:54 PM EDT / 2024.05.28 2254 UTC
Wind: from the SW (230 degrees) at 9 MPH (8 KT):0
Visibility: 10 mile(s):0
Sky conditions: partly cloudy
Weather: Cumulonimbus clouds, towering cumulus clouds observed
Temperature: 77.0 F (25.0 C)
Dew Point: 55.0 F (12.8 C)
Relative Humidity: 46%
Pressure (altimeter): 29.82 in. Hg (1009 hPa)
ob: KBWI 282254Z 23008KT 10SM FEW060 FEW080 SCT100 SCT200 25/13 A2982 RMK AO2 SLP098 CB DSNT S MOV E TCU DSNT W T02500128
cycle: 23

Station Type Date Time Source
KBWI TAF 2024/05/28 21:03 UTC NOAA